Time;durP1;ratioP1;P1;durP2;ratioP2;P2;SDS_P1;SDS_P2;PMS_P1;PMS_P2;Temp;Humidity;BMP_temperature;BMP_pressure;BME280_temperature;BME280_humidity;BME280_pressure;Samples;Min_cycle;Max_cycle;Signal;HPM_P1;HPM_P2
2024/01/31 00:02:25;;;;;;;1.00;1.00;;;;;;;-1.70;100.00;100441.56;4840321;29;20140;-78
2024/01/31 00:04:52;;;;;;;0.80;0.80;;;;;;;-1.81;100.00;100447.78;4856628;29;20422;-78
2024/01/31 00:07:20;;;;;;;1.00;1.00;;;;;;;-1.81;100.00;100445.13;4856476;29;20061;-78
2024/01/31 00:09:47;;;;;;;0.98;0.98;;;;;;;-1.78;100.00;100443.06;4856680;29;20269;-79
2024/01/31 00:12:14;;;;;;;1.00;1.00;;;;;;;-1.77;100.00;100444.75;4856583;29;20084;-79
2024/01/31 00:14:44;;;;;;;0.88;0.88;;;;;;;-1.73;100.00;100439.19;4856649;29;20060;-79
2024/01/31 00:17:11;;;;;;;1.00;1.00;;;;;;;-1.78;100.00;100437.75;4856323;29;20144;-80
2024/01/31 00:19:39;;;;;;;0.90;0.90;;;;;;;-1.82;100.00;100432.88;4856608;29;20053;-79
2024/01/31 00:22:06;;;;;;;0.80;0.80;;;;;;;-1.81;100.00;100429.25;4840187;29;20716;-79
2024/01/31 00:24:33;;;;;;;0.90;0.90;;;;;;;-1.87;100.00;100427.13;4856674;29;20225;-77
2024/01/31 00:27:00;;;;;;;0.90;0.90;;;;;;;-1.95;100.00;100427.75;4856193;29;20061;-79
2024/01/31 00:29:28;;;;;;;0.90;0.90;;;;;;;-1.98;100.00;100428.00;4872515;29;20092;-78
2024/01/31 00:31:56;;;;;;;0.90;0.90;;;;;;;-1.99;100.00;100427.19;4874798;29;20752;-79
2024/01/31 00:34:23;;;;;;;1.02;1.02;;;;;;;-1.89;100.00;100431.72;4875185;29;20478;-79
2024/01/31 00:36:51;;;;;;;1.00;1.00;;;;;;;-1.90;100.00;100425.59;4874695;29;20057;-79
2024/01/31 00:39:28;;;;;;;1.00;1.00;;;;;;;-1.86;100.00;100434.94;4843010;29;20140;-78
2024/01/31 00:41:55;;;;;;;0.90;0.90;;;;;;;-1.90;100.00;100428.22;4858366;29;20073;-78
2024/01/31 00:44:22;;;;;;;1.00;1.00;;;;;;;-1.96;100.00;100421.63;4860452;29;20057;-79
2024/01/31 00:46:50;;;;;;;0.90;0.90;;;;;;;-1.91;100.00;100426.53;4861310;29;20143;-79
2024/01/31 00:49:17;;;;;;;1.00;1.00;;;;;;;-1.92;100.00;100421.34;4868680;29;20068;-79
2024/01/31 00:51:51;;;;;;;0.88;0.88;;;;;;;-1.91;100.00;100429.19;4854162;29;20168;-79
2024/01/31 00:54:19;;;;;;;0.90;0.90;;;;;;;-1.92;100.00;100419.56;4855208;29;20062;-79
2024/01/31 00:56:46;;;;;;;0.95;0.95;;;;;;;-1.94;100.00;100434.75;4856847;29;20082;-80
2024/01/31 00:59:14;;;;;;;0.80;0.80;;;;;;;-1.96;100.00;100418.97;4856360;29;20068;-80
2024/01/31 01:01:41;;;;;;;1.00;1.00;;;;;;;-1.88;100.00;100422.78;4839350;29;20069;-77
2024/01/31 01:04:09;;;;;;;0.75;0.75;;;;;;;-1.88;100.00;100417.50;4856019;29;20065;-80
2024/01/31 01:06:40;;;;;;;1.00;1.00;;;;;;;-1.88;100.00;100406.91;4856282;29;20433;-78
2024/01/31 01:09:08;;;;;;;1.00;1.00;;;;;;;-1.86;100.00;100410.28;4860782;29;20060;-80
2024/01/31 01:11:35;;;;;;;1.02;1.02;;;;;;;-1.86;100.00;100412.91;4872275;29;20576;-80
2024/01/31 01:14:03;;;;;;;0.90;0.90;;;;;;;-1.87;100.00;100414.75;4874578;29;20068;-81
2024/01/31 01:16:30;;;;;;;0.82;0.82;;;;;;;-1.88;100.00;100413.03;4874539;29;20133;-81
2024/01/31 01:18:58;;;;;;;0.95;0.95;;;;;;;-1.87;100.00;100414.75;4857937;29;20052;-79
2024/01/31 01:21:25;;;;;;;1.00;1.00;;;;;;;-1.85;100.00;100406.66;4875083;29;20181;-81
2024/01/31 01:23:52;;;;;;;0.80;0.80;;;;;;;-1.85;100.00;100402.22;4858389;29;20052;-80
2024/01/31 01:26:20;;;;;;;0.85;0.85;;;;;;;-1.81;100.00;100398.31;4874805;29;20057;-80
2024/01/31 01:28:47;;;;;;;0.90;0.90;;;;;;;-1.77;100.00;100401.56;4874426;29;20113;-80
2024/01/31 01:31:14;;;;;;;1.00;1.00;;;;;;;-1.78;100.00;100398.06;4874521;29;20104;-81
2024/01/31 01:33:42;;;;;;;0.82;0.82;;;;;;;-1.81;100.00;100402.78;4874463;29;20145;-80
2024/01/31 01:36:12;;;;;;;1.00;1.00;;;;;;;-1.82;100.00;100395.81;4874569;29;20485;-81
2024/01/31 01:38:39;;;;;;;0.90;0.90;;;;;;;-1.76;100.00;100396.13;4874639;29;20056;-82
2024/01/31 01:41:06;;;;;;;0.90;0.90;;;;;;;-1.77;100.00;100385.69;4874436;29;20429;-80
2024/01/31 01:43:34;;;;;;;0.98;0.98;;;;;;;-1.78;100.00;100389.28;4858065;29;20512;-81
2024/01/31 01:46:27;;;;;;;0.90;0.90;;;;;;;-1.77;100.00;100378.56;4873559;29;20057;-80
2024/01/31 01:48:55;;;;;;;1.05;1.05;;;;;;;-1.77;100.00;100375.94;4853664;29;20117;-80
2024/01/31 01:51:25;;;;;;;0.90;0.90;;;;;;;-1.72;100.00;100374.69;4839960;29;20065;-82
2024/01/31 01:53:52;;;;;;;1.05;1.05;;;;;;;-1.72;100.00;100370.25;4856069;29;20069;-79
2024/01/31 01:56:20;;;;;;;1.02;1.02;;;;;;;-1.75;100.00;100360.75;4855972;29;20058;-81
2024/01/31 01:58:48;;;;;;;0.90;0.90;;;;;;;-1.76;100.00;100366.16;4839484;29;20053;-81
2024/01/31 02:01:16;;;;;;;1.00;1.00;;;;;;;-1.83;100.00;100360.56;4855510;29;20117;-81
2024/01/31 02:03:45;;;;;;;0.90;0.90;;;;;;;-1.81;100.00;100358.63;4855763;29;20417;-81
2024/01/31 02:06:13;;;;;;;1.00;1.00;;;;;;;-1.81;100.00;100355.16;4855720;29;20053;-82
2024/01/31 02:08:41;;;;;;;0.90;0.90;;;;;;;-1.80;100.00;100352.38;4855547;29;20077;-79
2024/01/31 02:11:09;;;;;;;1.00;1.00;;;;;;;-1.81;100.00;100345.38;4855589;29;20053;-81
2024/01/31 02:13:36;;;;;;;1.00;1.00;;;;;;;-1.80;100.00;100343.56;4839254;29;20094;-80
2024/01/31 02:16:04;;;;;;;1.00;1.00;;;;;;;-1.80;100.00;100347.09;4855450;29;20053;-80
2024/01/31 02:18:31;;;;;;;1.00;1.00;;;;;;;-1.78;100.00;100345.13;4855943;29;20148;-80
2024/01/31 02:20:59;;;;;;;0.90;0.90;;;;;;;-1.81;100.00;100345.38;4858745;29;20440;-81
2024/01/31 02:23:26;;;;;;;0.93;0.93;;;;;;;-1.82;100.00;100342.91;4859187;29;20130;-81
2024/01/31 02:25:54;;;;;;;1.00;1.00;;;;;;;-1.84;100.00;100340.38;4858954;29;20061;-81
2024/01/31 02:28:21;;;;;;;1.00;1.00;;;;;;;-1.83;100.00;100336.75;4858753;29;20057;-80
2024/01/31 02:30:51;;;;;;;1.00;1.00;;;;;;;-1.86;100.00;100331.72;4858716;29;20513;-78
2024/01/31 02:33:18;;;;;;;0.93;0.93;;;;;;;-1.86;100.00;100337.00;4858541;29;20161;-78
2024/01/31 02:35:45;;;;;;;0.90;0.90;;;;;;;-1.83;100.00;100335.91;4858443;29;20090;-78
2024/01/31 02:38:13;;;;;;;1.00;1.00;;;;;;;-1.82;100.00;100335.78;4842146;29;20049;-78
2024/01/31 02:40:40;;;;;;;1.00;1.00;;;;;;;-1.81;100.00;100333.97;4858739;29;20086;-78
2024/01/31 02:43:08;;;;;;;0.90;0.90;;;;;;;-1.84;100.00;100336.88;4858582;29;20061;-79
2024/01/31 02:45:36;;;;;;;0.90;0.90;;;;;;;-1.86;100.00;100339.66;4858397;29;20068;-79
2024/01/31 02:48:04;;;;;;;1.08;1.08;;;;;;;-1.79;100.00;100343.47;4858134;29;20153;-79
2024/01/31 02:50:32;;;;;;;1.00;1.00;;;;;;;-1.72;100.00;100332.31;4858206;29;20132;-79
2024/01/31 02:53:01;;;;;;;0.90;0.90;;;;;;;-1.71;100.00;100324.25;4858013;29;20148;-78
2024/01/31 02:55:28;;;;;;;0.80;0.80;;;;;;;-1.74;100.00;100324.53;4858401;29;20071;-78
2024/01/31 02:57:55;;;;;;;0.90;0.90;;;;;;;-1.79;100.00;100306.41;4858261;29;20061;-81
2024/01/31 03:00:24;;;;;;;0.98;0.98;;;;;;;-1.84;100.00;100302.50;4858298;29;20125;-82
2024/01/31 03:02:52;;;;;;;0.90;0.90;;;;;;;-1.85;100.00;100298.16;4858051;29;20140;-82
2024/01/31 03:05:19;;;;;;;1.00;1.00;;;;;;;-1.88;100.00;100283.38;4858133;29;20113;-81
2024/01/31 03:07:46;;;;;;;0.85;0.85;;;;;;;-1.90;100.00;100281.81;4858039;29;20140;-80
2024/01/31 03:10:14;;;;;;;1.10;1.10;;;;;;;-1.96;100.00;100278.75;4857940;29;20065;-79
2024/01/31 03:12:41;;;;;;;0.90;0.90;;;;;;;-1.98;100.00;100269.25;4857687;29;20054;-80
2024/01/31 03:15:08;;;;;;;1.10;1.10;;;;;;;-1.97;100.00;100277.09;4857705;29;20092;-78
2024/01/31 03:17:36;;;;;;;0.90;0.90;;;;;;;-1.96;100.00;100275.25;4858011;29;20105;-81
2024/01/31 03:20:05;;;;;;;0.98;0.98;;;;;;;-1.90;100.00;100276.53;4841286;29;20060;-79
2024/01/31 03:22:36;;;;;;;1.00;1.00;;;;;;;-1.98;100.00;100271.91;4857843;29;20061;-79
2024/01/31 03:25:04;;;;;;;0.90;0.90;;;;;;;-1.97;100.00;100273.59;4842052;29;20176;-78
2024/01/31 03:27:36;;;;;;;0.90;0.90;;;;;;;-1.94;100.00;100269.84;4857925;29;20057;-77
2024/01/31 03:30:04;;;;;;;0.80;0.80;;;;;;;-1.95;100.00;100279.56;4857076;29;20513;-80
2024/01/31 03:32:37;;;;;;;1.00;1.00;;;;;;;-1.91;100.00;100267.75;4858241;29;20081;-78
2024/01/31 03:35:05;;;;;;;1.00;1.00;;;;;;;-1.89;100.00;100279.06;4865058;29;20057;-79
2024/01/31 03:37:32;;;;;;;0.90;0.90;;;;;;;-1.84;100.00;100273.38;4876320;29;20068;-79
2024/01/31 03:40:00;;;;;;;1.00;1.00;;;;;;;-1.83;100.00;100272.38;4859396;29;20057;-78
2024/01/31 03:42:29;;;;;;;0.90;0.90;;;;;;;-1.84;100.00;100276.03;4876195;29;20148;-80
2024/01/31 03:44:57;;;;;;;1.00;1.00;;;;;;;-1.83;100.00;100270.56;4876103;29;20080;-78
2024/01/31 03:47:24;;;;;;;1.00;1.00;;;;;;;-1.89;100.00;100271.13;4876040;29;20049;-79
2024/01/31 03:49:53;;;;;;;1.00;1.00;;;;;;;-1.95;100.00;100261.06;4859259;29;20140;-77
2024/01/31 03:52:25;;;;;;;0.97;0.97;;;;;;;-1.98;100.00;100253.38;4876071;29;20053;-78
2024/01/31 03:54:52;;;;;;;0.90;0.90;;;;;;;-1.93;100.00;100261.75;4860613;29;20113;-82
2024/01/31 03:57:19;;;;;;;0.95;0.95;;;;;;;-1.92;100.00;100257.31;4857535;29;20124;-77
2024/01/31 03:59:48;;;;;;;0.90;0.90;;;;;;;-1.91;100.00;100253.69;4857131;29;20106;-78
2024/01/31 04:02:16;;;;;;;0.85;0.85;;;;;;;-1.90;100.00;100245.66;4871270;29;20065;-79
2024/01/31 04:04:44;;;;;;;0.98;0.98;;;;;;;-1.93;100.00;100240.59;4876066;29;20125;-80
2024/01/31 04:07:11;;;;;;;0.80;0.80;;;;;;;-1.92;100.00;100230.84;4875338;29;20072;-79
2024/01/31 04:09:39;;;;;;;0.90;0.90;;;;;;;-1.94;100.00;100222.22;4859550;29;20152;-79
2024/01/31 04:12:07;;;;;;;0.90;0.90;;;;;;;-1.96;100.00;100225.81;4876265;29;20064;-79
2024/01/31 04:14:34;;;;;;;0.88;0.88;;;;;;;-1.93;100.00;100223.88;4875854;29;20077;-78
2024/01/31 04:17:02;;;;;;;0.90;0.90;;;;;;;-1.93;100.00;100219.44;4875858;29;20060;-78
2024/01/31 04:19:29;;;;;;;1.10;1.10;;;;;;;-1.89;100.00;100214.72;4875681;29;20167;-79
2024/01/31 04:21:57;;;;;;;0.90;0.90;;;;;;;-1.92;100.00;100218.47;4875764;29;20057;-79
2024/01/31 04:24:24;;;;;;;1.00;1.00;;;;;;;-1.94;100.00;100204.53;4875890;29;20444;-80
2024/01/31 04:26:51;;;;;;;1.00;1.00;;;;;;;-1.93;100.00;100215.94;4875487;29;20512;-78
2024/01/31 04:29:20;;;;;;;0.93;0.93;;;;;;;-1.91;100.00;100214.00;4875616;29;20072;-79
2024/01/31 04:31:53;;;;;;;0.90;0.90;;;;;;;-1.84;100.00;100210.69;4874840;29;20059;-79
2024/01/31 04:34:20;;;;;;;0.90;0.90;;;;;;;-1.90;100.00;100205.09;4875111;29;20060;-79
2024/01/31 04:36:48;;;;;;;1.05;1.05;;;;;;;-1.93;100.00;100211.50;4875406;29;20088;-78
2024/01/31 04:39:16;;;;;;;0.80;0.80;;;;;;;-1.92;100.00;100205.25;4875111;29;20049;-79
2024/01/31 04:41:43;;;;;;;1.00;1.00;;;;;;;-1.95;100.00;100205.50;4874584;29;20145;-79
2024/01/31 04:44:10;;;;;;;1.00;1.00;;;;;;;-1.97;100.00;100208.28;4875033;29;20151;-78
2024/01/31 04:46:38;;;;;;;1.10;1.10;;;;;;;-1.94;100.00;100206.34;4875020;29;20056;-79
2024/01/31 04:49:06;;;;;;;0.98;0.98;;;;;;;-1.94;100.00;100196.59;4875276;29;20084;-80
2024/01/31 04:51:33;;;;;;;0.93;0.93;;;;;;;-1.94;100.00;100191.31;4856413;29;20065;-80
2024/01/31 04:54:00;;;;;;;1.00;1.00;;;;;;;-1.94;100.00;100191.31;4856032;29;20053;-78
2024/01/31 04:56:28;;;;;;;0.88;0.88;;;;;;;-1.91;100.00;100182.25;4856521;29;20094;-77
2024/01/31 04:58:55;;;;;;;0.90;0.90;;;;;;;-1.94;100.00;100183.38;4856410;29;20137;-79
2024/01/31 05:01:23;;;;;;;1.00;1.00;;;;;;;-1.92;100.00;100184.06;4855301;29;20474;-79
2024/01/31 05:03:50;;;;;;;0.95;0.95;;;;;;;-1.92;100.00;100180.56;4864013;29;20151;-79
2024/01/31 05:06:17;;;;;;;1.10;1.10;;;;;;;-1.89;100.00;100177.69;4850682;29;20057;-78
2024/01/31 05:08:45;;;;;;;1.00;1.00;;;;;;;-1.90;100.00;100186.56;4840114;29;20105;-79
2024/01/31 05:11:15;;;;;;;1.00;1.00;;;;;;;-1.93;100.00;100177.09;4865392;29;20064;-78
2024/01/31 05:13:43;;;;;;;0.98;0.98;;;;;;;-1.89;100.00;100182.97;4855723;29;20060;-79
2024/01/31 05:16:10;;;;;;;0.93;0.93;;;;;;;-1.91;100.00;100180.44;4842944;29;20114;-79
2024/01/31 05:18:39;;;;;;;1.08;1.08;;;;;;;-1.92;100.00;100181.44;4847038;29;20431;-79
2024/01/31 05:21:10;;;;;;;1.00;1.00;;;;;;;-1.89;100.00;100185.63;4850405;29;20057;-80
2024/01/31 05:23:40;;;;;;;0.90;0.90;;;;;;;-1.92;100.00;100178.78;4875337;29;20084;-80
2024/01/31 05:26:10;;;;;;;0.90;0.90;;;;;;;-1.93;100.00;100176.25;4858204;29;20060;-78
2024/01/31 05:28:37;;;;;;;1.05;1.05;;;;;;;-1.90;100.00;100170.69;4866956;29;20351;-78
2024/01/31 05:31:05;;;;;;;1.00;1.00;;;;;;;-1.88;100.00;100164.28;4869005;29;20454;-77
2024/01/31 05:33:32;;;;;;;0.90;0.90;;;;;;;-1.88;100.00;100164.28;4860787;29;20421;-78
2024/01/31 05:36:01;;;;;;;1.00;1.00;;;;;;;-1.91;100.00;100163.75;4526974;29;10000005;-77
2024/01/31 05:38:28;;;;;;;0.90;0.90;;;;;;;-1.92;100.00;100154.09;4860529;29;20053;-79
2024/01/31 05:40:56;;;;;;;1.00;1.00;;;;;;;-1.87;100.00;100160.69;4848352;29;20067;-78
2024/01/31 05:43:23;;;;;;;1.00;1.00;;;;;;;-1.82;100.00;100158.47;4863252;29;20061;-76
2024/01/31 05:45:51;;;;;;;0.90;0.90;;;;;;;-1.82;100.00;100155.81;4845180;29;20085;-76
2024/01/31 05:48:18;;;;;;;1.00;1.00;;;;;;;-1.84;100.00;100151.63;4860421;29;20181;-78
2024/01/31 05:50:46;;;;;;;1.17;1.17;;;;;;;-1.83;100.00;100146.19;4862956;29;20102;-78
2024/01/31 05:53:13;;;;;;;0.90;0.90;;;;;;;-1.81;100.00;100154.84;4834467;29;20497;-78
2024/01/31 05:55:41;;;;;;;1.00;1.00;;;;;;;-1.85;100.00;100139.38;4864248;29;20057;-77
2024/01/31 05:58:08;;;;;;;0.80;0.80;;;;;;;-1.79;100.00;100137.03;4863762;29;20360;-78
2024/01/31 06:00:35;;;;;;;1.00;1.00;;;;;;;-1.77;100.00;100131.59;4860439;29;20062;-77
2024/01/31 06:03:03;;;;;;;0.90;0.90;;;;;;;-1.78;100.00;100141.31;4863970;29;20477;-78
2024/01/31 06:05:31;;;;;;;0.93;0.93;;;;;;;-1.75;100.00;100130.50;4861589;29;20057;-81
2024/01/31 06:07:58;;;;;;;0.80;0.80;;;;;;;-1.71;100.00;100124.91;4861996;29;20652;-79
2024/01/31 06:10:26;;;;;;;0.85;0.85;;;;;;;-1.76;100.00;100115.56;4860012;29;20600;-80
2024/01/31 06:12:53;;;;;;;0.90;0.90;;;;;;;-1.84;100.00;100109.31;4848730;29;20057;-81
2024/01/31 06:15:25;;;;;;;0.90;0.90;;;;;;;-1.93;100.00;100099.53;4865938;29;20136;-80
2024/01/31 06:17:52;;;;;;;0.90;0.90;;;;;;;-1.96;100.00;100101.47;4848710;29;20064;-80
2024/01/31 06:20:20;;;;;;;0.90;0.90;;;;;;;-1.96;100.00;100098.81;4865298;29;20057;-79
2024/01/31 06:22:47;;;;;;;0.98;0.98;;;;;;;-1.86;100.00;100092.72;4862614;29;20612;-81
2024/01/31 06:25:14;;;;;;;1.00;1.00;;;;;;;-1.81;100.00;100101.09;4866795;29;20049;-80
2024/01/31 06:27:42;;;;;;;0.90;0.90;;;;;;;-1.84;100.00;100093.44;4848283;29;20080;-82
2024/01/31 06:30:19;;;;;;;1.00;1.00;;;;;;;-1.82;100.00;100088.84;4850169;29;20786;-81
2024/01/31 06:32:47;;;;;;;1.00;1.00;;;;;;;-1.80;100.00;100084.22;4869070;29;20061;-79
2024/01/31 06:35:15;;;;;;;0.95;0.95;;;;;;;-1.73;100.00;100069.47;4847381;29;20568;-82
2024/01/31 06:37:42;;;;;;;1.00;1.00;;;;;;;-1.71;100.00;100070.16;4866937;29;20077;-79
2024/01/31 06:40:10;;;;;;;1.05;1.05;;;;;;;-1.67;100.00;100065.41;4848496;29;20049;-83
2024/01/31 06:42:38;;;;;;;0.90;0.90;;;;;;;-1.68;100.00;100058.47;4865448;29;20125;-82
2024/01/31 06:45:05;;;;;;;0.80;0.80;;;;;;;-1.69;100.00;100059.44;4849493;29;20051;-80
2024/01/31 06:47:32;;;;;;;0.80;0.80;;;;;;;-1.72;100.00;100041.16;4855906;29;20519;-83
2024/01/31 06:50:00;;;;;;;0.93;0.93;;;;;;;-1.71;100.00;100046.34;4862719;29;20056;-82
2024/01/31 06:52:30;;;;;;;1.00;1.00;;;;;;;-1.69;100.00;100047.03;4866703;29;20184;-80
2024/01/31 06:54:57;;;;;;;0.90;0.90;;;;;;;-1.73;100.00;100050.09;4839620;29;20058;-83
2024/01/31 06:57:25;;;;;;;0.93;0.93;;;;;;;-1.78;100.00;100048.69;4846874;29;20143;-78
2024/01/31 06:59:52;;;;;;;0.95;0.95;;;;;;;-1.80;100.00;100041.88;4858904;29;20073;-78
2024/01/31 07:02:20;;;;;;;0.90;0.90;;;;;;;-1.81;100.00;100054.28;4861998;29;20200;-80
2024/01/31 07:04:47;;;;;;;0.77;0.77;;;;;;;-1.80;100.00;100045.38;4866440;29;20053;-79
2024/01/31 07:07:14;;;;;;;0.80;0.80;;;;;;;-1.78;100.00;100043.41;4864694;29;20136;-81
2024/01/31 07:09:42;;;;;;;0.88;0.88;;;;;;;-1.76;100.00;100045.91;4864536;29;20048;-81
2024/01/31 07:12:09;;;;;;;0.90;0.90;;;;;;;-1.75;100.00;100043.16;4866163;29;20052;-82
2024/01/31 07:14:37;;;;;;;0.90;0.90;;;;;;;-1.71;100.00;100037.56;4862172;29;20057;-79
2024/01/31 07:17:04;;;;;;;1.10;1.10;;;;;;;-1.78;100.00;100039.94;4508751;29;10000009;-78
2024/01/31 07:19:32;;;;;;;0.93;0.93;;;;;;;-1.80;100.00;100028.63;4848672;29;20061;-79
2024/01/31 07:22:00;;;;;;;1.00;1.00;;;;;;;-1.83;100.00;100029.75;4860641;29;20540;-80
2024/01/31 07:24:28;;;;;;;0.95;0.95;;;;;;;-1.81;100.00;100026.97;4878018;29;20063;-81
2024/01/31 07:26:56;;;;;;;1.00;1.00;;;;;;;-1.77;100.00;100025.75;4878265;29;20207;-80
2024/01/31 07:29:24;;;;;;;0.90;0.90;;;;;;;-1.76;100.00;100025.56;4878095;29;20500;-82
2024/01/31 07:31:53;;;;;;;1.05;1.05;;;;;;;-1.76;100.00;100024.75;4861102;29;20144;-81
2024/01/31 07:34:21;;;;;;;0.90;0.90;;;;;;;-1.80;100.00;100026.00;4877950;29;20064;-81
2024/01/31 07:36:48;;;;;;;0.90;0.90;;;;;;;-1.84;100.00;100011.38;4877948;29;20057;-80
2024/01/31 07:39:16;;;;;;;1.02;1.02;;;;;;;-1.88;100.00;100023.22;4867665;29;20053;-81
2024/01/31 07:41:46;;;;;;;0.80;0.80;;;;;;;-1.87;100.00;100007.22;4859613;29;20494;-80
2024/01/31 07:44:13;;;;;;;0.80;0.80;;;;;;;-1.91;100.00;100004.97;4859144;29;20049;-80
2024/01/31 07:46:41;;;;;;;0.80;0.80;;;;;;;-1.87;100.00;100007.22;4859245;29;20049;-80
2024/01/31 07:49:09;;;;;;;1.10;1.10;;;;;;;-1.85;100.00;100004.41;4859358;29;20085;-80
2024/01/31 07:51:46;;;;;;;1.00;1.00;;;;;;;-1.76;100.00;100000.94;4859290;29;20091;-81
2024/01/31 07:54:15;;;;;;;0.90;0.90;;;;;;;-1.84;100.00;99995.50;4859269;29;20208;-81
2024/01/31 07:56:43;;;;;;;1.00;1.00;;;;;;;-1.82;100.00;99997.03;4843048;29;20125;-80
2024/01/31 07:59:11;;;;;;;0.80;0.80;;;;;;;-1.76;100.00;99991.19;4842846;29;20069;-84
2024/01/31 08:01:38;;;;;;;0.90;0.90;;;;;;;-1.70;100.00;100002.16;4842394;29;20089;-80
2024/01/31 08:04:06;;;;;;;1.00;1.00;;;;;;;-1.63;100.00;99993.53;4859152;29;20057;-81
2024/01/31 08:06:35;;;;;;;0.98;0.98;;;;;;;-1.62;100.00;99981.13;4858993;29;20061;-81
2024/01/31 08:09:03;;;;;;;0.80;0.80;;;;;;;-1.59;100.00;99994.09;4858642;29;20066;-81
2024/01/31 08:11:42;;;;;;;0.90;0.90;;;;;;;-1.61;100.00;99991.56;4858986;29;20065;-81
2024/01/31 08:14:10;;;;;;;0.88;0.88;;;;;;;-1.73;100.00;100005.94;4883122;29;20139;-81
2024/01/31 08:16:37;;;;;;;1.00;1.00;;;;;;;-1.83;100.00;100011.22;4895372;29;20060;-81
2024/01/31 08:19:06;;;;;;;1.00;1.00;;;;;;;-1.84;100.00;100001.63;4895889;29;20053;-80
2024/01/31 08:21:35;;;;;;;1.02;1.02;;;;;;;-1.78;100.00;100001.06;4886076;29;20174;-86
2024/01/31 08:24:03;;;;;;;0.82;0.82;;;;;;;-1.73;100.00;99999.81;4835991;29;20072;-81
2024/01/31 08:26:30;;;;;;;0.95;0.95;;;;;;;-1.73;100.00;99998.00;4866460;29;20057;-80
2024/01/31 08:28:57;;;;;;;0.95;0.95;;;;;;;-1.68;100.00;99979.88;4863040;29;20505;-80
2024/01/31 08:31:41;;;;;;;0.88;0.88;;;;;;;-1.69;100.00;99985.34;4854498;29;20416;-84
2024/01/31 08:34:12;;;;;;;1.00;1.00;;;;;;;-1.74;100.00;99988.41;4528167;29;10000061;-83
2024/01/31 08:36:40;;;;;;;0.90;0.90;;;;;;;-1.85;100.00;99978.81;4842531;29;20176;-82
2024/01/31 08:39:10;;;;;;;1.00;1.00;;;;;;;-1.83;100.00;99974.19;4829720;29;20057;-82
2024/01/31 08:41:38;;;;;;;1.00;1.00;;;;;;;-1.84;100.00;99963.75;4824827;29;20053;-81
2024/01/31 08:44:05;;;;;;;1.10;1.10;;;;;;;-1.86;100.00;99957.75;4864872;29;20049;-81
2024/01/31 08:46:32;;;;;;;0.88;0.88;;;;;;;-1.78;100.00;99956.06;4841053;29;20049;-83
2024/01/31 08:49:09;;;;;;;0.90;0.90;;;;;;;-1.83;100.00;99965.41;4848798;29;20076;-82
2024/01/31 08:51:38;;;;;;;0.90;0.90;;;;;;;-1.84;100.00;99961.94;4862359;29;20061;-84
2024/01/31 08:54:06;;;;;;;1.02;1.02;;;;;;;-1.84;100.00;99971.69;4863627;29;21177;-81
2024/01/31 08:56:34;;;;;;;1.10;1.10;;;;;;;-1.86;100.00;99955.94;4855272;29;20581;-85
2024/01/31 08:59:01;;;;;;;1.00;1.00;;;;;;;-1.83;100.00;99950.38;4861779;29;20060;-82
2024/01/31 09:01:29;;;;;;;0.90;0.90;;;;;;;-1.82;100.00;99944.13;4864958;29;20205;-79
2024/01/31 09:03:56;;;;;;;0.90;0.90;;;;;;;-1.83;100.00;99929.19;4857452;29;20053;-80
2024/01/31 09:06:24;;;;;;;1.08;1.08;;;;;;;-1.87;100.00;99911.94;4862929;29;20053;-80
2024/01/31 09:08:53;;;;;;;1.00;1.00;;;;;;;-1.87;100.00;99919.88;4861603;29;20057;-81
2024/01/31 09:11:21;;;;;;;0.93;0.93;;;;;;;-1.86;100.00;99918.06;4861435;29;20096;-80
2024/01/31 09:13:49;;;;;;;1.00;1.00;;;;;;;-1.95;100.00;99919.75;4862456;29;20060;-80
2024/01/31 09:16:17;;;;;;;1.00;1.00;;;;;;;-1.96;100.00;99918.91;4847329;29;20057;-81
2024/01/31 09:18:44;;;;;;;0.93;0.93;;;;;;;-2.03;100.00;99909.03;4864062;29;20061;-81
2024/01/31 09:21:27;;;;;;;1.10;1.10;;;;;;;-2.02;100.00;99898.34;4859756;29;20138;-82
2024/01/31 09:23:54;;;;;;;0.88;0.88;;;;;;;-1.98;100.00;99897.06;4833351;29;20084;-80
2024/01/31 09:26:22;;;;;;;0.95;0.95;;;;;;;-1.93;100.00;99886.03;4862931;29;20080;-82
2024/01/31 09:28:50;;;;;;;1.00;1.00;;;;;;;-1.91;100.00;99870.88;4857107;29;20061;-81
2024/01/31 09:31:25;;;;;;;1.10;1.10;;;;;;;-1.86;100.00;99858.03;4835147;29;20474;-82
2024/01/31 09:33:54;;;;;;;0.90;0.90;;;;;;;-1.83;100.00;99857.75;4863281;29;20061;-82
2024/01/31 09:36:22;;;;;;;0.80;0.80;;;;;;;-1.78;100.00;99850.22;4872710;29;20147;-84
2024/01/31 09:38:50;;;;;;;0.95;0.95;;;;;;;-1.77;100.00;99859.00;4876575;29;20318;-81
2024/01/31 09:41:17;;;;;;;0.90;0.90;;;;;;;-1.78;100.00;99857.31;4872730;29;20053;-81
2024/01/31 09:43:45;;;;;;;0.90;0.90;;;;;;;-1.82;100.00;99848.84;4866287;29;20076;-82
2024/01/31 09:46:15;;;;;;;1.00;1.00;;;;;;;-1.89;100.00;99839.81;4850596;29;20072;-81
2024/01/31 09:48:43;;;;;;;0.95;0.95;;;;;;;-1.87;100.00;99829.94;4848021;29;20061;-82
2024/01/31 09:51:11;;;;;;;0.90;0.90;;;;;;;-1.85;100.00;99832.41;4861856;29;20065;-81
2024/01/31 09:53:39;;;;;;;1.00;1.00;;;;;;;-1.85;100.00;99820.03;4856762;29;20056;-83
2024/01/31 09:56:07;;;;;;;1.00;1.00;;;;;;;-1.89;100.00;99823.94;4849834;29;20060;-81
2024/01/31 09:58:36;;;;;;;1.00;1.00;;;;;;;-1.97;100.00;99835.25;4862458;29;20054;-81
2024/01/31 10:01:06;;;;;;;1.02;1.02;;;;;;;-2.02;100.00;99844.59;4846407;29;20127;-81
2024/01/31 10:03:44;;;;;;;1.10;1.10;;;;;;;-2.03;100.00;99845.56;4858249;29;20053;-80
2024/01/31 10:06:11;;;;;;;1.10;1.10;;;;;;;-1.95;100.00;99832.44;4864866;29;20112;-79
2024/01/31 10:08:39;;;;;;;1.10;1.10;;;;;;;-1.86;100.00;99831.59;4875996;29;20055;-82
2024/01/31 10:11:08;;;;;;;0.82;0.82;;;;;;;-1.77;100.00;99837.84;4876556;29;20705;-81
2024/01/31 10:13:35;;;;;;;1.00;1.00;;;;;;;-1.73;100.00;99843.66;4858400;29;20101;-81
2024/01/31 10:16:03;;;;;;;1.10;1.10;;;;;;;-1.69;100.00;99839.75;4852217;29;20140;-81
2024/01/31 10:18:31;;;;;;;1.00;1.00;;;;;;;-1.71;100.00;99825.84;4857097;29;20068;-79
2024/01/31 10:21:01;;;;;;;1.05;1.05;;;;;;;-1.63;100.00;99818.00;4862176;29;20538;-80
2024/01/31 10:23:28;;;;;;;1.00;1.00;;;;;;;-1.56;100.00;99822.56;4864450;29;20080;-80
2024/01/31 10:25:56;;;;;;;0.90;0.90;;;;;;;-1.51;100.00;99822.13;4872099;29;20544;-82
2024/01/31 10:28:24;;;;;;;0.98;0.98;;;;;;;-1.46;100.00;99813.75;4877723;29;20108;-83
2024/01/31 10:30:53;;;;;;;1.00;1.00;;;;;;;-1.45;100.00;99791.56;4843754;29;20153;-83
2024/01/31 10:37:13;;;;;;;0.93;0.93;;;;;;;-1.27;99.68;99783.66;4866800;29;20107;-83
2024/01/31 10:39:52;;;;;;;1.10;1.10;;;;;;;-1.28;99.66;99779.34;4845366;29;20053;-81
2024/01/31 10:42:38;;;;;;;1.00;1.00;;;;;;;-1.24;99.44;99780.69;4852650;29;20058;-82
2024/01/31 10:45:06;;;;;;;0.93;0.93;;;;;;;-1.25;99.33;99774.56;4864701;29;20092;-81
2024/01/31 10:47:34;;;;;;;1.10;1.10;;;;;;;-1.26;98.83;99774.75;4864346;29;20049;-82
2024/01/31 10:50:02;;;;;;;0.90;0.90;;;;;;;-1.24;98.81;99762.16;4866423;29;20050;-81
2024/01/31 10:52:34;;;;;;;0.95;0.95;;;;;;;-1.20;99.20;99763.53;4845524;29;20049;-81
2024/01/31 10:55:03;;;;;;;1.15;1.15;;;;;;;-1.16;99.06;99759.63;4866732;29;20053;-83
2024/01/31 10:57:37;;;;;;;0.80;0.80;;;;;;;-1.13;98.92;99756.66;4859483;29;20056;-84
2024/01/31 11:00:09;;;;;;;0.88;0.88;;;;;;;-1.24;97.92;99744.47;4864664;29;20064;-83
2024/01/31 11:02:36;;;;;;;0.90;0.90;;;;;;;-1.29;97.39;99751.19;4863790;29;20444;-85
2024/01/31 11:05:04;;;;;;;1.00;1.00;;;;;;;-1.28;97.48;99744.91;4862292;29;20053;-81
2024/01/31 11:07:44;;;;;;;1.00;1.00;;;;;;;-1.33;96.97;99730.31;4878602;29;20543;-82
2024/01/31 11:10:20;;;;;;;1.00;1.00;;;;;;;-1.33;97.43;99732.13;4878646;29;20065;-81
2024/01/31 11:13:04;;;;;;;1.10;1.10;;;;;;;-1.23;97.21;99724.94;4861655;29;20061;-82
2024/01/31 11:15:35;;;;;;;1.00;1.00;;;;;;;-1.26;96.93;99717.28;4862287;29;20144;-81
2024/01/31 11:18:09;;;;;;;0.90;0.90;;;;;;;-1.16;96.76;99725.19;4878702;29;20156;-82
2024/01/31 11:20:51;;;;;;;1.10;1.10;;;;;;;-1.17;96.20;99734.09;4862437;29;20065;-82
2024/01/31 11:23:23;;;;;;;1.00;1.00;;;;;;;-1.18;96.09;99729.78;4868553;29;20063;-82
2024/01/31 11:25:51;;;;;;;1.00;1.00;;;;;;;-1.18;96.24;99720.00;4859853;29;20065;-81
2024/01/31 11:28:21;;;;;;;0.90;0.90;;;;;;;-1.22;95.42;99729.22;4859852;29;20061;-83
2024/01/31 11:30:51;;;;;;;0.98;0.98;;;;;;;-1.29;95.34;99738.78;4843623;29;20402;-81